createdAt,value
2018-12-24T00:01:20.833Z,7.20
2018-12-24T00:04:10.982Z,7.03
2018-12-24T00:07:01.567Z,22.23
2018-12-24T00:09:51.575Z,8.63
2018-12-24T00:12:41.919Z,8.67
2018-12-24T00:15:31.978Z,9.33
2018-12-24T00:18:22.359Z,12.50
2018-12-24T00:21:12.742Z,11.30
2018-12-24T00:24:03.066Z,8.20
2018-12-24T00:26:53.469Z,11.40
2018-12-24T00:29:43.712Z,8.57
2018-12-24T00:32:33.819Z,7.43
2018-12-24T00:35:24.024Z,11.70
2018-12-24T00:38:14.307Z,8.70
2018-12-24T00:41:04.536Z,6.60
2018-12-24T00:43:54.661Z,7.33
2018-12-24T00:46:44.980Z,11.67
2018-12-24T00:49:35.351Z,6.67
2018-12-24T00:52:25.808Z,6.00
2018-12-24T00:55:16.183Z,5.63
2018-12-24T00:58:06.599Z,5.37
2018-12-24T01:00:57.255Z,7.33
2018-12-24T01:03:47.575Z,4.23
2018-12-24T01:06:38.000Z,8.03
2018-12-24T01:09:28.354Z,5.60
2018-12-24T01:12:24.492Z,8.73
2018-12-24T01:15:09.902Z,10.20
2018-12-24T01:17:59.958Z,8.30
2018-12-24T01:20:50.371Z,11.17
2018-12-24T01:23:40.463Z,6.97
2018-12-24T01:26:30.787Z,13.47
2018-12-24T01:29:21.494Z,7.70
2018-12-24T01:32:11.603Z,12.63
2018-12-24T01:35:01.868Z,8.10
2018-12-24T01:37:52.227Z,11.20
2018-12-24T01:40:42.234Z,6.07
2018-12-24T01:43:32.312Z,7.87
2018-12-24T01:46:22.610Z,6.87
2018-12-24T01:49:12.906Z,7.30
2018-12-24T01:52:02.935Z,6.53
2018-12-24T01:54:53.488Z,7.70
2018-12-24T01:57:43.857Z,4.63
2018-12-24T02:00:34.377Z,6.20
2018-12-24T02:03:25.315Z,9.17
2018-12-24T02:06:15.660Z,9.57
2018-12-24T02:09:07.554Z,10.07
2018-12-24T02:11:58.043Z,9.30
2018-12-24T02:14:48.351Z,13.30
2018-12-24T02:17:39.154Z,9.80
2018-12-24T02:20:29.478Z,8.97
2018-12-24T02:23:19.522Z,12.30
2018-12-24T02:26:10.211Z,12.97
2018-12-24T02:29:00.615Z,9.23
2018-12-24T02:31:50.825Z,9.23
2018-12-24T02:34:40.887Z,15.23
2018-12-24T02:37:30.929Z,8.80
2018-12-24T02:40:21.053Z,12.90
2018-12-24T02:43:11.216Z,12.07
2018-12-24T02:46:01.511Z,11.67
2018-12-24T02:48:52.470Z,12.77
2018-12-24T02:51:43.743Z,12.73
2018-12-24T02:54:34.269Z,8.30
2018-12-24T02:57:24.699Z,8.50
2018-12-24T03:00:15.330Z,8.30
2018-12-24T03:03:05.403Z,8.00
2018-12-24T03:05:55.560Z,8.87
2018-12-24T03:08:46.468Z,4.60
2018-12-24T03:11:36.795Z,10.00
2018-12-24T03:14:27.140Z,4.60
2018-12-24T03:17:17.261Z,8.43
2018-12-24T03:20:07.579Z,7.47
2018-12-24T03:22:58.695Z,8.70
2018-12-24T03:25:48.831Z,7.97
2018-12-24T03:28:39.288Z,6.37
2018-12-24T03:31:30.107Z,6.67
2018-12-24T03:34:20.603Z,3.37
2018-12-24T03:37:10.871Z,6.87
2018-12-24T03:40:02.570Z,8.70
2018-12-24T03:42:52.554Z,5.90
2018-12-24T03:45:42.902Z,4.67
2018-12-24T03:48:32.987Z,7.00
2018-12-24T03:51:23.256Z,2.93
2018-12-24T03:54:13.234Z,6.60
2018-12-24T03:57:03.567Z,8.50
2018-12-24T03:59:53.759Z,6.10
2018-12-24T04:02:44.390Z,6.47
2018-12-24T04:05:34.802Z,6.40
2018-12-24T04:08:24.882Z,12.60
2018-12-24T04:11:15.172Z,9.63
2018-12-24T04:14:05.214Z,9.07
2018-12-24T04:16:55.336Z,8.83
2018-12-24T04:19:45.840Z,11.20
2018-12-24T04:22:35.958Z,7.70
2018-12-24T04:25:26.311Z,13.53
2018-12-24T04:28:17.106Z,9.43
2018-12-24T04:31:07.407Z,7.43
2018-12-24T04:33:57.797Z,12.90
2018-12-24T04:36:48.039Z,10.03
2018-12-24T04:39:38.342Z,15.53
2018-12-24T04:42:29.155Z,11.83
2018-12-24T04:45:19.502Z,8.33
2018-12-24T04:48:09.607Z,13.30
2018-12-24T04:51:00.413Z,15.83
2018-12-24T04:53:50.630Z,9.07
2018-12-24T04:56:40.980Z,9.77
2018-12-24T04:59:31.291Z,8.93
2018-12-24T05:02:21.579Z,12.93
2018-12-24T05:05:12.026Z,8.37
2018-12-24T05:08:02.552Z,13.23
2018-12-24T05:10:52.907Z,5.30
2018-12-24T05:13:43.202Z,8.17
2018-12-24T05:16:33.447Z,9.03
2018-12-24T05:19:24.416Z,9.67
2018-12-24T05:22:14.695Z,9.80
2018-12-24T05:25:05.663Z,14.70
2018-12-24T05:27:55.836Z,10.57
2018-12-24T05:30:46.606Z,7.73
2018-12-24T05:33:38.205Z,7.03
2018-12-24T05:36:28.450Z,7.03
2018-12-24T05:39:18.551Z,9.00
2018-12-24T05:42:08.819Z,18.00
2018-12-24T05:44:59.123Z,9.30
2018-12-24T05:47:49.498Z,6.20
2018-12-24T05:50:39.826Z,10.37
2018-12-24T05:53:30.214Z,13.50
2018-12-24T05:56:20.635Z,13.63
2018-12-24T05:59:10.775Z,15.47
2018-12-24T06:02:01.055Z,9.50
2018-12-24T06:04:52.039Z,11.03
2018-12-24T06:07:42.115Z,11.43
2018-12-24T06:10:32.186Z,9.17
2018-12-24T06:13:22.467Z,6.03
2018-12-24T06:16:12.779Z,8.57
2018-12-24T06:19:02.819Z,11.17
2018-12-24T06:21:53.162Z,11.73
2018-12-24T06:24:43.244Z,8.90
2018-12-24T06:27:33.387Z,11.73
2018-12-24T06:30:23.719Z,13.00
2018-12-24T06:33:14.019Z,9.53
2018-12-24T06:36:04.390Z,11.67
2018-12-24T06:38:54.700Z,8.93
2018-12-24T06:41:45.056Z,8.10
2018-12-24T06:44:35.780Z,5.00
2018-12-24T06:47:26.698Z,8.97
2018-12-24T06:50:17.003Z,10.27
2018-12-24T06:53:07.310Z,16.03
2018-12-24T06:55:57.383Z,9.13
2018-12-24T06:58:47.574Z,6.87
2018-12-24T07:01:38.607Z,10.10
2018-12-24T07:04:29.175Z,11.37
2018-12-24T07:07:19.734Z,12.97
2018-12-24T07:10:10.119Z,10.97
2018-12-24T07:13:00.478Z,11.50
2018-12-24T07:15:50.658Z,9.93
2018-12-24T07:18:40.718Z,11.60
2018-12-24T07:21:30.967Z,12.70
2018-12-24T07:24:21.283Z,22.83
2018-12-24T07:27:11.467Z,16.77
2018-12-24T07:30:02.019Z,23.47
2018-12-24T07:32:51.944Z,17.53
2018-12-24T07:35:42.327Z,20.23
2018-12-24T07:38:33.045Z,14.97
2018-12-24T07:41:23.187Z,12.90
2018-12-24T07:44:13.206Z,22.17
2018-12-24T07:47:03.904Z,19.70
2018-12-24T07:49:54.015Z,17.80
2018-12-24T07:52:44.082Z,12.87
2018-12-24T07:55:34.759Z,21.97
2018-12-24T07:58:25.379Z,15.83
2018-12-24T08:01:15.849Z,19.20
2018-12-24T08:04:06.254Z,39.43
2018-12-24T08:06:56.603Z,33.47
2018-12-24T08:09:46.623Z,25.43
2018-12-24T08:12:36.758Z,18.03
2018-12-24T08:15:27.247Z,20.20
2018-12-24T08:18:17.537Z,18.87
2018-12-24T08:21:07.639Z,16.90
2018-12-24T08:23:57.822Z,12.67
2018-12-24T08:26:48.166Z,10.20
2018-12-24T08:29:38.475Z,14.70
2018-12-24T08:32:28.495Z,13.17
2018-12-24T08:35:18.516Z,17.80
2018-12-24T08:38:08.867Z,20.40
2018-12-24T08:40:58.863Z,18.30
2018-12-24T08:43:49.276Z,25.90
2018-12-24T08:46:39.783Z,17.90
2018-12-24T08:49:30.152Z,16.77
2018-12-24T08:52:20.355Z,14.13
2018-12-24T08:55:10.726Z,13.37
2018-12-24T08:58:01.158Z,19.70
2018-12-24T09:00:51.483Z,15.90
2018-12-24T09:03:42.195Z,22.37
2018-12-24T09:06:32.378Z,19.90
2018-12-24T09:09:23.460Z,22.83
2018-12-24T09:12:13.971Z,16.53
2018-12-24T09:15:05.009Z,15.63
2018-12-24T09:17:55.375Z,13.80
2018-12-24T09:20:52.557Z,12.37
2018-12-24T09:23:37.359Z,18.10
2018-12-24T09:26:27.490Z,11.93
2018-12-24T09:29:18.390Z,13.27
2018-12-24T09:32:08.623Z,14.77
2018-12-24T09:34:58.768Z,15.10
2018-12-24T09:37:48.814Z,16.97
2018-12-24T09:40:39.431Z,11.40
2018-12-24T09:43:29.967Z,11.93
2018-12-24T09:46:20.083Z,13.67
2018-12-24T09:49:10.444Z,6.20
2018-12-24T09:52:00.762Z,7.67
2018-12-24T09:54:51.119Z,8.37
2018-12-24T09:57:41.758Z,8.03
2018-12-24T10:00:32.347Z,6.73
2018-12-24T10:03:37.091Z,10.80
2018-12-24T10:06:37.268Z,6.73
2018-12-24T10:09:27.679Z,10.80
2018-12-24T10:12:17.754Z,16.47
2018-12-24T10:15:08.336Z,18.67
2018-12-24T10:17:59.427Z,16.67
2018-12-24T10:20:50.426Z,20.77
2018-12-24T10:23:40.600Z,18.43
2018-12-24T10:26:30.711Z,13.30
2018-12-24T10:29:20.867Z,12.00
2018-12-24T10:32:11.170Z,11.33
2018-12-24T10:35:01.374Z,8.47
2018-12-24T10:37:51.763Z,9.57
2018-12-24T10:40:52.570Z,10.97
2018-12-24T10:43:42.663Z,9.33
2018-12-24T10:46:33.234Z,13.43
2018-12-24T10:49:23.750Z,18.53
2018-12-24T10:52:14.037Z,19.17
2018-12-24T10:55:04.349Z,10.83
2018-12-24T10:57:54.480Z,11.83
2018-12-24T11:00:44.554Z,7.50
2018-12-24T11:03:35.883Z,9.57
2018-12-24T11:06:26.770Z,7.43
2018-12-24T11:09:17.342Z,7.50
2018-12-24T11:12:09.042Z,8.17
2018-12-24T11:14:59.543Z,6.23
2018-12-24T11:17:49.483Z,11.47
2018-12-24T11:20:39.730Z,11.07
2018-12-24T11:23:29.982Z,9.87
2018-12-24T11:26:20.386Z,8.17
2018-12-24T11:29:10.355Z,5.07
2018-12-24T11:32:01.393Z,3.90
2018-12-24T11:34:51.802Z,6.40
2018-12-24T11:37:42.040Z,4.93
2018-12-24T11:40:32.226Z,5.47
2018-12-24T11:43:23.204Z,2.97
2018-12-24T11:46:13.566Z,4.60
2018-12-24T11:49:03.859Z,2.00
2018-12-24T11:51:53.923Z,2.53
2018-12-24T11:54:43.978Z,4.37
2018-12-24T11:57:34.399Z,3.87
2018-12-24T12:00:25.007Z,2.80
2018-12-24T12:03:15.079Z,3.63
2018-12-24T12:06:05.941Z,6.33
2018-12-24T12:08:56.134Z,8.83
2018-12-24T12:11:46.294Z,4.23
2018-12-24T12:14:36.744Z,4.20
2018-12-24T12:17:27.294Z,5.13
2018-12-24T12:20:17.540Z,3.10
2018-12-24T12:23:07.620Z,5.73
2018-12-24T12:25:57.707Z,5.97
2018-12-24T12:28:47.767Z,4.20
2018-12-24T12:31:37.862Z,10.07
2018-12-24T12:34:28.091Z,6.77
2018-12-24T12:37:18.383Z,2.23
2018-12-24T12:40:09.159Z,1.90
2018-12-24T12:42:59.891Z,2.47
2018-12-24T12:45:51.394Z,2.10
2018-12-24T12:48:42.067Z,2.73
2018-12-24T12:51:32.531Z,3.40
2018-12-24T12:54:22.519Z,3.93
2018-12-24T12:57:12.658Z,6.80
2018-12-24T13:00:02.734Z,5.87
2018-12-24T13:02:52.750Z,5.50
2018-12-24T13:05:43.107Z,2.13
2018-12-24T13:08:33.636Z,2.93
2018-12-24T13:11:24.111Z,1.90
2018-12-24T13:14:14.474Z,1.70
2018-12-24T13:17:04.998Z,2.80
2018-12-24T13:19:55.042Z,7.23
2018-12-24T13:22:45.379Z,3.57
2018-12-24T13:25:35.663Z,1.03
2018-12-24T13:28:25.696Z,2.10
2018-12-24T13:31:16.527Z,1.93
2018-12-24T13:34:06.834Z,4.53
2018-12-24T13:36:57.395Z,4.93
2018-12-24T13:39:48.115Z,1.87
2018-12-24T13:42:38.691Z,2.87
2018-12-24T13:45:28.731Z,5.90
2018-12-24T13:48:18.751Z,4.70
2018-12-24T13:51:09.043Z,2.37
2018-12-24T13:53:59.132Z,4.80
2018-12-24T13:56:49.483Z,3.10
2018-12-24T13:59:39.660Z,2.20
2018-12-24T14:02:29.720Z,1.70
2018-12-24T14:05:20.270Z,2.67
2018-12-24T14:08:10.531Z,2.33
2018-12-24T14:11:00.635Z,2.73
2018-12-24T14:13:50.931Z,1.97
2018-12-24T14:16:41.290Z,3.23
2018-12-24T14:19:31.617Z,2.67
2018-12-24T14:22:21.607Z,1.40
2018-12-24T14:25:11.611Z,3.70
2018-12-24T14:28:01.936Z,2.40
2018-12-24T14:30:52.070Z,0.90
2018-12-24T14:33:42.294Z,2.70
2018-12-24T14:36:32.427Z,1.27
2018-12-24T14:39:23.012Z,3.03
2018-12-24T14:42:13.139Z,0.80
2018-12-24T14:45:03.579Z,1.83
2018-12-24T14:47:53.948Z,2.97
2018-12-24T14:50:47.410Z,0.90
2018-12-24T14:53:35.891Z,1.13
2018-12-24T14:56:25.940Z,3.90
2018-12-24T14:59:15.981Z,2.87
2018-12-24T15:02:06.484Z,1.30
2018-12-24T15:04:57.034Z,3.77
2018-12-24T15:07:47.167Z,2.13
2018-12-24T15:10:37.335Z,3.80
2018-12-24T15:13:28.683Z,4.87
2018-12-24T15:16:18.715Z,1.90
2018-12-24T15:19:09.083Z,2.27
2018-12-24T15:21:59.727Z,3.33
2018-12-24T15:24:50.607Z,2.60
2018-12-24T15:27:40.518Z,6.10
2018-12-24T15:30:30.794Z,6.30
2018-12-24T15:33:21.015Z,3.90
2018-12-24T15:36:11.263Z,6.87
2018-12-24T15:39:02.306Z,11.93
2018-12-24T15:41:52.798Z,4.50
2018-12-24T15:44:43.136Z,3.40
2018-12-24T15:47:33.572Z,6.43
2018-12-24T15:50:23.602Z,6.20
2018-12-24T15:53:13.939Z,5.33
2018-12-24T15:56:04.102Z,6.70
2018-12-24T15:58:54.390Z,5.17
2018-12-24T16:01:44.709Z,5.07
2018-12-24T16:04:34.966Z,4.53
2018-12-24T16:07:25.098Z,3.07
2018-12-24T16:10:15.156Z,6.20
2018-12-24T16:13:05.536Z,5.03
2018-12-24T16:15:56.036Z,5.53
2018-12-24T16:18:46.393Z,23.03
2018-12-24T16:21:36.959Z,9.60
2018-12-24T16:24:27.504Z,9.47
2018-12-24T16:27:17.610Z,4.53
2018-12-24T16:30:09.107Z,10.53
2018-12-24T16:32:59.179Z,13.10
2018-12-24T16:35:49.794Z,9.13
2018-12-24T16:38:40.194Z,10.77
2018-12-24T16:41:30.274Z,13.53
2018-12-24T16:44:20.523Z,11.60
2018-12-24T16:47:10.839Z,7.83
2018-12-24T16:50:00.894Z,6.67
2018-12-24T16:52:51.035Z,5.47
2018-12-24T16:55:41.153Z,3.87
2018-12-24T16:58:31.198Z,5.17
2018-12-24T17:01:21.735Z,6.83
2018-12-24T17:04:12.523Z,7.27
2018-12-24T17:07:02.551Z,7.20
2018-12-24T17:09:53.402Z,9.23
2018-12-24T17:12:43.518Z,7.93
2018-12-24T17:15:33.584Z,8.97
2018-12-24T17:18:24.164Z,6.70
2018-12-24T17:21:14.519Z,10.60
2018-12-24T17:24:04.590Z,13.83
2018-12-24T17:26:54.963Z,8.63
2018-12-24T17:29:45.179Z,9.77
2018-12-24T17:32:35.679Z,8.40
2018-12-24T17:35:26.055Z,10.50
2018-12-24T17:38:16.370Z,12.47
2018-12-24T17:41:06.623Z,12.37
2018-12-24T17:43:56.738Z,16.63
2018-12-24T17:46:47.587Z,18.00
2018-12-24T17:49:37.635Z,16.17
2018-12-24T17:52:27.753Z,16.67
2018-12-24T17:55:18.081Z,15.50
2018-12-24T17:58:08.615Z,18.73
2018-12-24T18:00:59.222Z,22.17
2018-12-24T18:03:49.643Z,16.27
2018-12-24T18:06:39.782Z,14.77
2018-12-24T18:09:29.889Z,15.33
2018-12-24T18:12:20.246Z,16.03
2018-12-24T18:15:10.484Z,10.70
2018-12-24T18:18:00.606Z,15.47
2018-12-24T18:20:50.699Z,13.40
2018-12-24T18:23:41.144Z,14.17
2018-12-24T18:26:31.336Z,11.40
2018-12-24T18:29:21.963Z,10.70
2018-12-24T18:32:12.467Z,16.43
2018-12-24T18:35:02.812Z,12.37
2018-12-24T18:37:53.579Z,15.77
2018-12-24T18:40:43.734Z,13.13
2018-12-24T18:43:34.059Z,11.43
2018-12-24T18:46:24.695Z,10.57
2018-12-24T18:49:15.217Z,12.13
2018-12-24T18:52:05.818Z,10.77
2018-12-24T18:54:55.872Z,11.93
2018-12-24T18:57:46.351Z,13.27
2018-12-24T19:00:36.602Z,15.80
